sensor_id;sensor_type;location;lat;lon;timestamp;temperature;humidity
57664;DHT22;43493;53.098;6.064;2022-08-03T00:01:51;20.00;99.90
57664;DHT22;43493;53.098;6.064;2022-08-03T00:04:17;20.00;99.90
57664;DHT22;43493;53.098;6.064;2022-08-03T00:06:42;20.00;99.90
57664;DHT22;43493;53.098;6.064;2022-08-03T00:09:09;19.90;99.90
57664;DHT22;43493;53.098;6.064;2022-08-03T00:11:34;20.00;99.90
57664;DHT22;43493;53.098;6.064;2022-08-03T00:14:01;20.00;99.90
57664;DHT22;43493;53.098;6.064;2022-08-03T00:16:27;20.00;99.90
57664;DHT22;43493;53.098;6.064;2022-08-03T00:18:53;19.90;99.90
57664;DHT22;43493;53.098;6.064;2022-08-03T00:21:19;19.90;99.90
57664;DHT22;43493;53.098;6.064;2022-08-03T00:23:44;19.90;99.90
57664;DHT22;43493;53.098;6.064;2022-08-03T00:26:10;19.90;99.90
57664;DHT22;43493;53.098;6.064;2022-08-03T00:28:36;19.80;99.90
57664;DHT22;43493;53.098;6.064;2022-08-03T00:31:02;19.80;99.90
57664;DHT22;43493;53.098;6.064;2022-08-03T00:33:27;19.80;99.90
57664;DHT22;43493;53.098;6.064;2022-08-03T00:35:53;19.80;99.90
57664;DHT22;43493;53.098;6.064;2022-08-03T00:38:19;19.80;99.90
57664;DHT22;43493;53.098;6.064;2022-08-03T00:40:45;19.80;99.90
57664;DHT22;43493;53.098;6.064;2022-08-03T00:43:11;19.80;99.90
57664;DHT22;43493;53.098;6.064;2022-08-03T00:45:41;19.80;99.90
57664;DHT22;43493;53.098;6.064;2022-08-03T00:48:08;19.80;99.90
57664;DHT22;43493;53.098;6.064;2022-08-03T00:50:39;19.80;99.90
57664;DHT22;43493;53.098;6.064;2022-08-03T00:53:06;19.80;99.90
57664;DHT22;43493;53.098;6.064;2022-08-03T00:55:35;19.80;99.90
57664;DHT22;43493;53.098;6.064;2022-08-03T00:58:03;19.80;99.90
57664;DHT22;43493;53.098;6.064;2022-08-03T01:00:33;19.80;99.90
57664;DHT22;43493;53.098;6.064;2022-08-03T01:03:01;19.70;99.90
57664;DHT22;43493;53.098;6.064;2022-08-03T01:05:27;19.70;99.90
57664;DHT22;43493;53.098;6.064;2022-08-03T01:10:59;19.70;99.90
57664;DHT22;43493;53.098;6.064;2022-08-03T01:27:15;19.60;99.90
57664;DHT22;43493;53.098;6.064;2022-08-03T01:30:05;19.50;99.90
57664;DHT22;43493;53.098;6.064;2022-08-03T01:32:43;19.60;99.90
57664;DHT22;43493;53.098;6.064;2022-08-03T01:35:18;19.50;99.90
57664;DHT22;43493;53.098;6.064;2022-08-03T01:37:54;19.40;99.90
57664;DHT22;43493;53.098;6.064;2022-08-03T01:40:24;19.50;99.90
57664;DHT22;43493;53.098;6.064;2022-08-03T01:42:51;19.40;99.90
57664;DHT22;43493;53.098;6.064;2022-08-03T01:45:19;19.40;99.90
57664;DHT22;43493;53.098;6.064;2022-08-03T01:47:47;19.40;99.90
57664;DHT22;43493;53.098;6.064;2022-08-03T01:50:14;19.40;99.90
57664;DHT22;43493;53.098;6.064;2022-08-03T01:52:43;19.40;99.90
57664;DHT22;43493;53.098;6.064;2022-08-03T01:55:10;19.40;99.90
57664;DHT22;43493;53.098;6.064;2022-08-03T01:57:38;19.40;99.90
57664;DHT22;43493;53.098;6.064;2022-08-03T02:00:06;19.30;99.90
57664;DHT22;43493;53.098;6.064;2022-08-03T02:02:35;19.30;99.90
57664;DHT22;43493;53.098;6.064;2022-08-03T02:05:05;19.30;99.90
57664;DHT22;43493;53.098;6.064;2022-08-03T02:07:32;19.30;99.90
57664;DHT22;43493;53.098;6.064;2022-08-03T02:10:00;19.30;99.90
57664;DHT22;43493;53.098;6.064;2022-08-03T02:12:30;19.30;99.90
57664;DHT22;43493;53.098;6.064;2022-08-03T02:14:58;19.20;99.90
57664;DHT22;43493;53.098;6.064;2022-08-03T02:17:25;19.20;99.90
57664;DHT22;43493;53.098;6.064;2022-08-03T02:19:53;19.20;99.90
57664;DHT22;43493;53.098;6.064;2022-08-03T02:22:21;19.20;99.90
57664;DHT22;43493;53.098;6.064;2022-08-03T02:24:47;19.20;99.90
57664;DHT22;43493;53.098;6.064;2022-08-03T02:27:21;19.20;99.90
57664;DHT22;43493;53.098;6.064;2022-08-03T02:29:52;19.20;99.90
57664;DHT22;43493;53.098;6.064;2022-08-03T02:32:23;19.20;99.90
57664;DHT22;43493;53.098;6.064;2022-08-03T02:34:54;19.20;99.90
57664;DHT22;43493;53.098;6.064;2022-08-03T02:37:23;19.20;99.90
57664;DHT22;43493;53.098;6.064;2022-08-03T02:39:51;19.20;99.90
57664;DHT22;43493;53.098;6.064;2022-08-03T02:42:21;19.20;99.90
57664;DHT22;43493;53.098;6.064;2022-08-03T02:44:48;19.20;99.90
57664;DHT22;43493;53.098;6.064;2022-08-03T02:47:16;19.10;99.90
57664;DHT22;43493;53.098;6.064;2022-08-03T02:49:47;19.10;99.90
57664;DHT22;43493;53.098;6.064;2022-08-03T02:52:14;19.10;99.90
57664;DHT22;43493;53.098;6.064;2022-08-03T02:54:40;19.10;99.90
57664;DHT22;43493;53.098;6.064;2022-08-03T02:57:07;19.10;99.90
57664;DHT22;43493;53.098;6.064;2022-08-03T02:59:34;19.10;99.90
57664;DHT22;43493;53.098;6.064;2022-08-03T03:02:01;19.10;99.90
57664;DHT22;43493;53.098;6.064;2022-08-03T03:04:29;19.10;99.90
57664;DHT22;43493;53.098;6.064;2022-08-03T03:06:56;19.10;99.90
57664;DHT22;43493;53.098;6.064;2022-08-03T03:09:23;19.10;99.90
57664;DHT22;43493;53.098;6.064;2022-08-03T03:11:49;19.10;99.90
57664;DHT22;43493;53.098;6.064;2022-08-03T03:14:16;19.00;99.90
57664;DHT22;43493;53.098;6.064;2022-08-03T03:16:44;19.00;99.90
57664;DHT22;43493;53.098;6.064;2022-08-03T03:19:12;19.00;99.90
57664;DHT22;43493;53.098;6.064;2022-08-03T03:21:39;19.00;99.90
57664;DHT22;43493;53.098;6.064;2022-08-03T03:24:05;19.00;99.90
57664;DHT22;43493;53.098;6.064;2022-08-03T03:26:33;19.00;99.90
57664;DHT22;43493;53.098;6.064;2022-08-03T03:29:00;18.90;99.90
57664;DHT22;43493;53.098;6.064;2022-08-03T03:31:26;18.90;99.90
57664;DHT22;43493;53.098;6.064;2022-08-03T03:33:53;18.90;99.90
57664;DHT22;43493;53.098;6.064;2022-08-03T03:36:19;18.90;99.90
57664;DHT22;43493;53.098;6.064;2022-08-03T03:38:45;18.90;99.90
57664;DHT22;43493;53.098;6.064;2022-08-03T03:41:10;18.80;99.90
57664;DHT22;43493;53.098;6.064;2022-08-03T03:43:36;18.80;99.90
57664;DHT22;43493;53.098;6.064;2022-08-03T03:46:02;18.80;99.90
57664;DHT22;43493;53.098;6.064;2022-08-03T03:48:29;18.80;99.90
57664;DHT22;43493;53.098;6.064;2022-08-03T03:50:55;18.80;99.90
57664;DHT22;43493;53.098;6.064;2022-08-03T03:53:21;18.80;99.90
57664;DHT22;43493;53.098;6.064;2022-08-03T03:55:47;18.80;99.90
57664;DHT22;43493;53.098;6.064;2022-08-03T03:58:13;18.70;99.90
57664;DHT22;43493;53.098;6.064;2022-08-03T04:00:39;18.70;99.90
57664;DHT22;43493;53.098;6.064;2022-08-03T04:03:06;18.70;99.90
57664;DHT22;43493;53.098;6.064;2022-08-03T04:05:34;18.70;99.90
57664;DHT22;43493;53.098;6.064;2022-08-03T04:08:19;18.70;99.90
57664;DHT22;43493;53.098;6.064;2022-08-03T04:11:19;18.70;99.90
57664;DHT22;43493;53.098;6.064;2022-08-03T04:16:15;18.70;99.90
57664;DHT22;43493;53.098;6.064;2022-08-03T04:18:45;18.70;99.90
57664;DHT22;43493;53.098;6.064;2022-08-03T04:21:14;18.70;99.90
57664;DHT22;43493;53.098;6.064;2022-08-03T04:23:44;18.70;99.90
57664;DHT22;43493;53.098;6.064;2022-08-03T04:26:12;18.70;99.90
57664;DHT22;43493;53.098;6.064;2022-08-03T04:28:42;18.70;99.90
57664;DHT22;43493;53.098;6.064;2022-08-03T04:31:11;18.70;99.90
57664;DHT22;43493;53.098;6.064;2022-08-03T04:33:37;18.70;99.90
57664;DHT22;43493;53.098;6.064;2022-08-03T04:36:06;18.80;99.90
57664;DHT22;43493;53.098;6.064;2022-08-03T04:38:37;18.80;99.90
57664;DHT22;43493;53.098;6.064;2022-08-03T04:41:05;18.80;99.90
57664;DHT22;43493;53.098;6.064;2022-08-03T04:43:32;18.80;99.90
57664;DHT22;43493;53.098;6.064;2022-08-03T04:46:00;18.80;99.90
57664;DHT22;43493;53.098;6.064;2022-08-03T04:48:26;18.80;99.90
57664;DHT22;43493;53.098;6.064;2022-08-03T04:50:53;18.90;99.90
57664;DHT22;43493;53.098;6.064;2022-08-03T04:53:19;18.90;99.90
57664;DHT22;43493;53.098;6.064;2022-08-03T04:55:44;18.90;99.90
57664;DHT22;43493;53.098;6.064;2022-08-03T04:58:10;18.90;99.90
57664;DHT22;43493;53.098;6.064;2022-08-03T05:00:37;18.90;99.90
57664;DHT22;43493;53.098;6.064;2022-08-03T05:03:02;18.90;99.90
57664;DHT22;43493;53.098;6.064;2022-08-03T05:05:28;18.90;99.90
57664;DHT22;43493;53.098;6.064;2022-08-03T05:07:54;18.90;99.90
57664;DHT22;43493;53.098;6.064;2022-08-03T05:10:20;19.00;99.90
57664;DHT22;43493;53.098;6.064;2022-08-03T05:12:47;19.00;99.90
57664;DHT22;43493;53.098;6.064;2022-08-03T05:15:13;19.10;99.90
57664;DHT22;43493;53.098;6.064;2022-08-03T05:17:40;19.10;99.90
57664;DHT22;43493;53.098;6.064;2022-08-03T05:20:06;19.20;99.90
57664;DHT22;43493;53.098;6.064;2022-08-03T05:22:32;19.20;99.90
57664;DHT22;43493;53.098;6.064;2022-08-03T05:24:57;19.30;99.90
57664;DHT22;43493;53.098;6.064;2022-08-03T05:27:25;19.40;99.90
57664;DHT22;43493;53.098;6.064;2022-08-03T05:29:50;19.50;99.90
57664;DHT22;43493;53.098;6.064;2022-08-03T05:32:16;19.50;99.90
57664;DHT22;43493;53.098;6.064;2022-08-03T05:34:42;19.60;99.90
57664;DHT22;43493;53.098;6.064;2022-08-03T05:37:08;19.70;99.90
57664;DHT22;43493;53.098;6.064;2022-08-03T05:39:35;19.70;99.90
57664;DHT22;43493;53.098;6.064;2022-08-03T05:42:01;19.80;99.90
57664;DHT22;43493;53.098;6.064;2022-08-03T05:44:27;20.00;99.90
57664;DHT22;43493;53.098;6.064;2022-08-03T05:46:53;20.10;99.90
57664;DHT22;43493;53.098;6.064;2022-08-03T05:49:19;20.30;99.90
57664;DHT22;43493;53.098;6.064;2022-08-03T05:51:44;20.50;99.90
57664;DHT22;43493;53.098;6.064;2022-08-03T05:54:10;20.70;99.90
57664;DHT22;43493;53.098;6.064;2022-08-03T05:56:36;21.00;99.90
57664;DHT22;43493;53.098;6.064;2022-08-03T05:59:02;21.70;99.90
57664;DHT22;43493;53.098;6.064;2022-08-03T06:01:28;22.40;99.90
57664;DHT22;43493;53.098;6.064;2022-08-03T06:03:56;23.30;99.90
57664;DHT22;43493;53.098;6.064;2022-08-03T06:06:21;23.90;99.90
57664;DHT22;43493;53.098;6.064;2022-08-03T06:08:47;24.10;99.90
57664;DHT22;43493;53.098;6.064;2022-08-03T06:11:13;24.60;99.90
57664;DHT22;43493;53.098;6.064;2022-08-03T06:13:39;25.10;99.90
57664;DHT22;43493;53.098;6.064;2022-08-03T06:16:05;25.70;99.90
57664;DHT22;43493;53.098;6.064;2022-08-03T06:18:31;26.60;99.90
57664;DHT22;43493;53.098;6.064;2022-08-03T07:12:25;30.30;76.30
57664;DHT22;43493;53.098;6.064;2022-08-03T07:14:51;30.10;78.10
57664;DHT22;43493;53.098;6.064;2022-08-03T07:17:17;28.60;84.90
57664;DHT22;43493;53.098;6.064;2022-08-03T07:19:43;28.60;86.00
57664;DHT22;43493;53.098;6.064;2022-08-03T07:22:08;28.30;91.70
57664;DHT22;43493;53.098;6.064;2022-08-03T07:27:02;27.90;93.90
57664;DHT22;43493;53.098;6.064;2022-08-03T07:29:27;27.50;95.30
57664;DHT22;43493;53.098;6.064;2022-08-03T07:31:53;26.90;99.00
57664;DHT22;43493;53.098;6.064;2022-08-03T07:34:19;26.70;99.10
57664;DHT22;43493;53.098;6.064;2022-08-03T07:36:44;26.50;99.90
57664;DHT22;43493;53.098;6.064;2022-08-03T07:39:10;26.20;99.90
57664;DHT22;43493;53.098;6.064;2022-08-03T07:41:36;26.30;99.90
57664;DHT22;43493;53.098;6.064;2022-08-03T07:44:02;26.30;99.90
57664;DHT22;43493;53.098;6.064;2022-08-03T07:48:54;28.20;99.90
57664;DHT22;43493;53.098;6.064;2022-08-03T07:51:19;29.90;95.50
57664;DHT22;43493;53.098;6.064;2022-08-03T07:56:11;31.90;79.90
57664;DHT22;43493;53.098;6.064;2022-08-03T07:58:37;32.80;71.90
57664;DHT22;43493;53.098;6.064;2022-08-03T08:01:02;33.50;67.80
57664;DHT22;43493;53.098;6.064;2022-08-03T08:25:27;32.90;56.50
57664;DHT22;43493;53.098;6.064;2022-08-03T08:30:20;32.10;59.30
57664;DHT22;43493;53.098;6.064;2022-08-03T08:32:47;31.90;69.60
57664;DHT22;43493;53.098;6.064;2022-08-03T08:35:13;31.40;61.80
57664;DHT22;43493;53.098;6.064;2022-08-03T08:37:39;30.30;63.80
57664;DHT22;43493;53.098;6.064;2022-08-03T08:40:06;30.20;64.50
57664;DHT22;43493;53.098;6.064;2022-08-03T08:45:02;29.40;77.30
57664;DHT22;43493;53.098;6.064;2022-08-03T08:47:30;29.40;76.90
57664;DHT22;43493;53.098;6.064;2022-08-03T08:49:58;29.30;78.10
57664;DHT22;43493;53.098;6.064;2022-08-03T08:54:55;28.90;82.00
57664;DHT22;43493;53.098;6.064;2022-08-03T08:57:44;28.80;85.90
57664;DHT22;43493;53.098;6.064;2022-08-03T09:00:09;28.80;89.50
57664;DHT22;43493;53.098;6.064;2022-08-03T09:02:38;28.50;90.00
57664;DHT22;43493;53.098;6.064;2022-08-03T09:05:18;28.30;91.10
57664;DHT22;43493;53.098;6.064;2022-08-03T09:07:45;28.10;92.40
57664;DHT22;43493;53.098;6.064;2022-08-03T09:10:14;28.00;93.50
57664;DHT22;43493;53.098;6.064;2022-08-03T09:12:45;28.00;93.50
57664;DHT22;43493;53.098;6.064;2022-08-03T09:15:25;27.80;94.20
57664;DHT22;43493;53.098;6.064;2022-08-03T09:17:55;27.80;95.30
57664;DHT22;43493;53.098;6.064;2022-08-03T09:20:22;27.70;95.70
57664;DHT22;43493;53.098;6.064;2022-08-03T09:25:28;27.50;96.70
57664;DHT22;43493;53.098;6.064;2022-08-03T09:27:54;27.30;97.40
57664;DHT22;43493;53.098;6.064;2022-08-03T09:30:20;27.20;98.10
57664;DHT22;43493;53.098;6.064;2022-08-03T09:32:48;27.20;98.50
57664;DHT22;43493;53.098;6.064;2022-08-03T09:35:14;27.10;99.20
57664;DHT22;43493;53.098;6.064;2022-08-03T09:37:41;27.10;99.00
57664;DHT22;43493;53.098;6.064;2022-08-03T09:40:33;27.10;99.40
57664;DHT22;43493;53.098;6.064;2022-08-03T09:43:00;27.10;99.60
57664;DHT22;43493;53.098;6.064;2022-08-03T09:45:26;26.90;99.90
57664;DHT22;43493;53.098;6.064;2022-08-03T09:47:52;26.80;99.90
57664;DHT22;43493;53.098;6.064;2022-08-03T09:50:18;26.70;99.90
57664;DHT22;43493;53.098;6.064;2022-08-03T09:52:44;26.70;99.90
57664;DHT22;43493;53.098;6.064;2022-08-03T09:55:13;26.70;99.90
57664;DHT22;43493;53.098;6.064;2022-08-03T09:57:39;26.60;99.90
57664;DHT22;43493;53.098;6.064;2022-08-03T10:00:09;26.70;99.90
57664;DHT22;43493;53.098;6.064;2022-08-03T10:02:36;26.90;99.90
57664;DHT22;43493;53.098;6.064;2022-08-03T10:05:02;27.00;99.90
57664;DHT22;43493;53.098;6.064;2022-08-03T10:07:28;27.00;99.90
57664;DHT22;43493;53.098;6.064;2022-08-03T10:09:56;27.10;99.90
57664;DHT22;43493;53.098;6.064;2022-08-03T10:12:23;27.00;99.90
57664;DHT22;43493;53.098;6.064;2022-08-03T10:14:49;27.00;99.90
57664;DHT22;43493;53.098;6.064;2022-08-03T10:17:15;27.00;99.90
57664;DHT22;43493;53.098;6.064;2022-08-03T10:19:41;27.00;99.90
57664;DHT22;43493;53.098;6.064;2022-08-03T10:22:17;27.00;99.90
57664;DHT22;43493;53.098;6.064;2022-08-03T10:24:59;27.10;99.90
57664;DHT22;43493;53.098;6.064;2022-08-03T10:27:29;27.10;99.90
57664;DHT22;43493;53.098;6.064;2022-08-03T10:30:00;27.00;99.90
57664;DHT22;43493;53.098;6.064;2022-08-03T10:32:30;27.00;99.90
57664;DHT22;43493;53.098;6.064;2022-08-03T10:35:18;26.90;99.90
57664;DHT22;43493;53.098;6.064;2022-08-03T10:37:51;26.80;99.90
57664;DHT22;43493;53.098;6.064;2022-08-03T10:40:22;26.60;99.90
57664;DHT22;43493;53.098;6.064;2022-08-03T10:42:50;26.50;99.90
57664;DHT22;43493;53.098;6.064;2022-08-03T10:45:25;26.50;99.90
57664;DHT22;43493;53.098;6.064;2022-08-03T10:47:52;26.50;99.90
57664;DHT22;43493;53.098;6.064;2022-08-03T10:50:18;26.50;99.90
57664;DHT22;43493;53.098;6.064;2022-08-03T10:52:57;26.60;99.90
57664;DHT22;43493;53.098;6.064;2022-08-03T10:58:46;26.60;99.90
57664;DHT22;43493;53.098;6.064;2022-08-03T11:01:12;26.60;99.90
57664;DHT22;43493;53.098;6.064;2022-08-03T11:06:20;26.50;99.90
57664;DHT22;43493;53.098;6.064;2022-08-03T11:08:48;26.50;99.90
57664;DHT22;43493;53.098;6.064;2022-08-03T11:14:01;26.40;99.90
57664;DHT22;43493;53.098;6.064;2022-08-03T11:16:31;26.40;99.90
57664;DHT22;43493;53.098;6.064;2022-08-03T11:19:02;26.30;99.90
57664;DHT22;43493;53.098;6.064;2022-08-03T11:27:16;26.30;99.90
57664;DHT22;43493;53.098;6.064;2022-08-03T11:35:15;26.30;99.90
57664;DHT22;43493;53.098;6.064;2022-08-03T11:40:41;26.20;99.90
57664;DHT22;43493;53.098;6.064;2022-08-03T11:43:07;26.20;99.90
57664;DHT22;43493;53.098;6.064;2022-08-03T11:45:35;26.20;99.90
57664;DHT22;43493;53.098;6.064;2022-08-03T11:48:16;26.10;99.90
57664;DHT22;43493;53.098;6.064;2022-08-03T11:50:42;26.10;99.90
57664;DHT22;43493;53.098;6.064;2022-08-03T11:53:14;26.10;99.90
57664;DHT22;43493;53.098;6.064;2022-08-03T11:55:42;26.10;99.90
57664;DHT22;43493;53.098;6.064;2022-08-03T11:58:15;26.10;99.90
57664;DHT22;43493;53.098;6.064;2022-08-03T12:00:41;26.10;99.90
57664;DHT22;43493;53.098;6.064;2022-08-03T12:03:09;26.20;99.90
57664;DHT22;43493;53.098;6.064;2022-08-03T12:08:05;26.30;99.90
57664;DHT22;43493;53.098;6.064;2022-08-03T12:10:31;26.20;99.90
57664;DHT22;43493;53.098;6.064;2022-08-03T12:12:59;26.30;99.90
57664;DHT22;43493;53.098;6.064;2022-08-03T12:15:30;26.40;99.90
57664;DHT22;43493;53.098;6.064;2022-08-03T12:18:00;26.30;99.90
57664;DHT22;43493;53.098;6.064;2022-08-03T12:20:29;26.40;99.90
57664;DHT22;43493;53.098;6.064;2022-08-03T12:23:02;26.40;99.90
57664;DHT22;43493;53.098;6.064;2022-08-03T12:25:29;26.40;99.90
57664;DHT22;43493;53.098;6.064;2022-08-03T12:28:23;26.50;99.90
57664;DHT22;43493;53.098;6.064;2022-08-03T12:30:50;26.50;99.90
57664;DHT22;43493;53.098;6.064;2022-08-03T12:35:42;26.40;99.90
57664;DHT22;43493;53.098;6.064;2022-08-03T12:38:09;26.50;99.90
57664;DHT22;43493;53.098;6.064;2022-08-03T12:40:35;26.40;99.90
57664;DHT22;43493;53.098;6.064;2022-08-03T12:43:00;26.40;99.90
57664;DHT22;43493;53.098;6.064;2022-08-03T12:45:34;26.40;99.90
57664;DHT22;43493;53.098;6.064;2022-08-03T12:48:01;26.50;99.90
57664;DHT22;43493;53.098;6.064;2022-08-03T12:50:30;26.50;99.90
57664;DHT22;43493;53.098;6.064;2022-08-03T12:52:56;26.60;99.90
57664;DHT22;43493;53.098;6.064;2022-08-03T12:55:24;26.70;99.90
57664;DHT22;43493;53.098;6.064;2022-08-03T12:57:52;26.60;99.90
57664;DHT22;43493;53.098;6.064;2022-08-03T13:00:18;26.70;99.90
57664;DHT22;43493;53.098;6.064;2022-08-03T13:02:44;26.70;99.90
57664;DHT22;43493;53.098;6.064;2022-08-03T13:05:12;26.70;99.90
57664;DHT22;43493;53.098;6.064;2022-08-03T13:07:42;26.70;99.90
57664;DHT22;43493;53.098;6.064;2022-08-03T13:10:09;26.60;99.90
57664;DHT22;43493;53.098;6.064;2022-08-03T13:12:48;26.60;99.90
57664;DHT22;43493;53.098;6.064;2022-08-03T13:15:14;26.60;99.90
57664;DHT22;43493;53.098;6.064;2022-08-03T13:17:40;26.60;99.90
57664;DHT22;43493;53.098;6.064;2022-08-03T13:20:07;26.60;99.90
57664;DHT22;43493;53.098;6.064;2022-08-03T13:22:33;26.60;99.90
57664;DHT22;43493;53.098;6.064;2022-08-03T13:24:59;26.60;99.90
57664;DHT22;43493;53.098;6.064;2022-08-03T13:27:29;26.60;99.90
57664;DHT22;43493;53.098;6.064;2022-08-03T13:29:55;26.60;99.90
57664;DHT22;43493;53.098;6.064;2022-08-03T13:32:21;26.60;99.90
57664;DHT22;43493;53.098;6.064;2022-08-03T13:34:47;26.60;99.90
57664;DHT22;43493;53.098;6.064;2022-08-03T13:37:13;26.60;99.90
57664;DHT22;43493;53.098;6.064;2022-08-03T13:39:40;26.60;99.90
57664;DHT22;43493;53.098;6.064;2022-08-03T13:42:06;26.70;99.90
57664;DHT22;43493;53.098;6.064;2022-08-03T13:44:32;26.70;99.90
57664;DHT22;43493;53.098;6.064;2022-08-03T13:46:58;26.70;99.90
57664;DHT22;43493;53.098;6.064;2022-08-03T13:49:27;26.70;99.90
57664;DHT22;43493;53.098;6.064;2022-08-03T13:51:53;26.70;99.90
57664;DHT22;43493;53.098;6.064;2022-08-03T13:54:19;26.70;99.90
57664;DHT22;43493;53.098;6.064;2022-08-03T13:56:45;26.80;99.90
57664;DHT22;43493;53.098;6.064;2022-08-03T13:59:21;26.80;99.90
57664;DHT22;43493;53.098;6.064;2022-08-03T14:01:47;26.80;99.90
57664;DHT22;43493;53.098;6.064;2022-08-03T14:04:14;26.80;99.90
57664;DHT22;43493;53.098;6.064;2022-08-03T14:06:39;26.80;99.90
57664;DHT22;43493;53.098;6.064;2022-08-03T14:09:05;26.90;99.90
57664;DHT22;43493;53.098;6.064;2022-08-03T14:11:31;26.90;99.90
57664;DHT22;43493;53.098;6.064;2022-08-03T14:13:57;26.90;99.90
57664;DHT22;43493;53.098;6.064;2022-08-03T14:16:22;26.90;99.90
57664;DHT22;43493;53.098;6.064;2022-08-03T14:18:48;27.00;99.90
57664;DHT22;43493;53.098;6.064;2022-08-03T14:21:14;27.00;99.90
57664;DHT22;43493;53.098;6.064;2022-08-03T14:23:40;27.00;99.90
57664;DHT22;43493;53.098;6.064;2022-08-03T14:26:07;27.00;99.90
57664;DHT22;43493;53.098;6.064;2022-08-03T14:28:33;27.10;99.50
57664;DHT22;43493;53.098;6.064;2022-08-03T14:31:00;27.00;99.00
57664;DHT22;43493;53.098;6.064;2022-08-03T14:33:26;27.00;99.10
57664;DHT22;43493;53.098;6.064;2022-08-03T14:35:53;27.00;99.10
57664;DHT22;43493;53.098;6.064;2022-08-03T14:38:19;27.10;98.70
57664;DHT22;43493;53.098;6.064;2022-08-03T14:40:46;27.00;97.60
57664;DHT22;43493;53.098;6.064;2022-08-03T14:43:12;27.00;96.80
57664;DHT22;43493;53.098;6.064;2022-08-03T14:45:39;27.10;97.10
57664;DHT22;43493;53.098;6.064;2022-08-03T14:48:05;27.10;97.00
57664;DHT22;43493;53.098;6.064;2022-08-03T14:50:30;27.10;96.90
57664;DHT22;43493;53.098;6.064;2022-08-03T14:52:56;27.20;96.70
57664;DHT22;43493;53.098;6.064;2022-08-03T14:55:22;27.20;96.70
57664;DHT22;43493;53.098;6.064;2022-08-03T14:57:48;27.20;96.70
57664;DHT22;43493;53.098;6.064;2022-08-03T15:00:14;27.20;96.50
57664;DHT22;43493;53.098;6.064;2022-08-03T15:02:40;27.20;96.50
57664;DHT22;43493;53.098;6.064;2022-08-03T15:05:06;27.20;95.30
57664;DHT22;43493;53.098;6.064;2022-08-03T15:07:32;27.20;95.30
57664;DHT22;43493;53.098;6.064;2022-08-03T15:09:57;27.20;95.60
57664;DHT22;43493;53.098;6.064;2022-08-03T15:12:24;27.20;96.00
57664;DHT22;43493;53.098;6.064;2022-08-03T15:14:50;27.20;95.80
57664;DHT22;43493;53.098;6.064;2022-08-03T15:17:16;27.10;95.70
57664;DHT22;43493;53.098;6.064;2022-08-03T15:19:41;27.20;95.90
57664;DHT22;43493;53.098;6.064;2022-08-03T15:22:07;27.10;96.40
57664;DHT22;43493;53.098;6.064;2022-08-03T15:24:33;27.20;96.20
57664;DHT22;43493;53.098;6.064;2022-08-03T15:26:58;27.10;95.30
57664;DHT22;43493;53.098;6.064;2022-08-03T15:29:24;27.10;94.90
57664;DHT22;43493;53.098;6.064;2022-08-03T15:31:50;27.10;94.00
57664;DHT22;43493;53.098;6.064;2022-08-03T15:34:16;27.10;94.00
57664;DHT22;43493;53.098;6.064;2022-08-03T15:36:42;27.10;93.50
57664;DHT22;43493;53.098;6.064;2022-08-03T15:39:08;27.10;93.30
57664;DHT22;43493;53.098;6.064;2022-08-03T15:41:34;27.10;93.60
57664;DHT22;43493;53.098;6.064;2022-08-03T15:44:00;27.10;93.10
57664;DHT22;43493;53.098;6.064;2022-08-03T15:46:26;27.10;93.70
57664;DHT22;43493;53.098;6.064;2022-08-03T15:48:52;27.10;93.20
57664;DHT22;43493;53.098;6.064;2022-08-03T15:51:18;27.10;92.90
57664;DHT22;43493;53.098;6.064;2022-08-03T15:53:44;27.10;92.80
57664;DHT22;43493;53.098;6.064;2022-08-03T15:56:09;27.10;93.90
57664;DHT22;43493;53.098;6.064;2022-08-03T15:58:36;27.10;95.10
57664;DHT22;43493;53.098;6.064;2022-08-03T16:01:04;27.00;96.20
57664;DHT22;43493;53.098;6.064;2022-08-03T16:03:30;27.10;97.10
57664;DHT22;43493;53.098;6.064;2022-08-03T16:06:05;27.10;97.50
57664;DHT22;43493;53.098;6.064;2022-08-03T16:08:32;27.10;97.50
57664;DHT22;43493;53.098;6.064;2022-08-03T16:10:59;27.10;96.80
57664;DHT22;43493;53.098;6.064;2022-08-03T16:13:25;27.10;97.10
57664;DHT22;43493;53.098;6.064;2022-08-03T16:15:51;27.10;97.90
57664;DHT22;43493;53.098;6.064;2022-08-03T16:18:18;27.10;98.20
57664;DHT22;43493;53.098;6.064;2022-08-03T16:20:44;27.00;98.70
57664;DHT22;43493;53.098;6.064;2022-08-03T16:23:10;27.00;98.90
57664;DHT22;43493;53.098;6.064;2022-08-03T16:25:36;27.00;99.10
57664;DHT22;43493;53.098;6.064;2022-08-03T16:28:02;26.90;98.90
57664;DHT22;43493;53.098;6.064;2022-08-03T16:30:28;26.90;98.70
57664;DHT22;43493;53.098;6.064;2022-08-03T16:32:54;26.90;99.10
57664;DHT22;43493;53.098;6.064;2022-08-03T16:35:19;26.90;99.30
57664;DHT22;43493;53.098;6.064;2022-08-03T16:37:45;26.80;99.90
57664;DHT22;43493;53.098;6.064;2022-08-03T16:40:12;26.90;99.90
57664;DHT22;43493;53.098;6.064;2022-08-03T16:42:38;26.80;99.90
57664;DHT22;43493;53.098;6.064;2022-08-03T16:45:05;26.80;99.90
57664;DHT22;43493;53.098;6.064;2022-08-03T16:47:31;26.70;99.90
57664;DHT22;43493;53.098;6.064;2022-08-03T16:49:58;26.70;99.90
57664;DHT22;43493;53.098;6.064;2022-08-03T16:52:24;26.70;99.90
57664;DHT22;43493;53.098;6.064;2022-08-03T16:54:50;26.60;99.90
57664;DHT22;43493;53.098;6.064;2022-08-03T16:57:16;26.60;99.90
57664;DHT22;43493;53.098;6.064;2022-08-03T16:59:42;26.60;99.90
57664;DHT22;43493;53.098;6.064;2022-08-03T17:02:14;26.50;99.90
57664;DHT22;43493;53.098;6.064;2022-08-03T17:04:41;26.50;99.90
57664;DHT22;43493;53.098;6.064;2022-08-03T17:07:07;26.40;99.90
57664;DHT22;43493;53.098;6.064;2022-08-03T17:09:33;26.40;99.90
57664;DHT22;43493;53.098;6.064;2022-08-03T17:11:58;26.30;99.90
57664;DHT22;43493;53.098;6.064;2022-08-03T17:14:24;26.30;99.90
57664;DHT22;43493;53.098;6.064;2022-08-03T17:16:51;26.20;99.90
57664;DHT22;43493;53.098;6.064;2022-08-03T17:19:17;26.20;99.90
57664;DHT22;43493;53.098;6.064;2022-08-03T17:21:49;26.10;99.90
57664;DHT22;43493;53.098;6.064;2022-08-03T17:24:22;26.10;99.90
57664;DHT22;43493;53.098;6.064;2022-08-03T17:26:50;26.10;99.90
57664;DHT22;43493;53.098;6.064;2022-08-03T17:29:20;26.00;99.90
57664;DHT22;43493;53.098;6.064;2022-08-03T17:31:46;26.00;99.90
57664;DHT22;43493;53.098;6.064;2022-08-03T17:34:12;25.90;99.90
57664;DHT22;43493;53.098;6.064;2022-08-03T17:36:38;25.90;99.90
57664;DHT22;43493;53.098;6.064;2022-08-03T17:39:05;25.90;99.90
57664;DHT22;43493;53.098;6.064;2022-08-03T17:41:31;25.90;99.90
57664;DHT22;43493;53.098;6.064;2022-08-03T17:44:03;25.80;99.90
57664;DHT22;43493;53.098;6.064;2022-08-03T17:46:30;25.80;99.90
57664;DHT22;43493;53.098;6.064;2022-08-03T17:48:55;25.80;99.90
57664;DHT22;43493;53.098;6.064;2022-08-03T17:57:08;25.70;99.90